sensor_id;sensor_type;location;lat;lon;timestamp;P1;durP1;ratioP1;P2;durP2;ratioP2
23668;SDS011;12011;47.422;15.018;2022-11-06T00:00:14;4.34;;;4.31;;
23668;SDS011;12011;47.422;15.018;2022-11-06T00:02:52;4.27;;;4.22;;
23668;SDS011;12011;47.422;15.018;2022-11-06T00:05:27;4.41;;;4.34;;
23668;SDS011;12011;47.422;15.018;2022-11-06T00:08:10;4.13;;;4.09;;
23668;SDS011;12011;47.422;15.018;2022-11-06T00:10:42;3.66;;;3.62;;
23668;SDS011;12011;47.422;15.018;2022-11-06T00:13:14;4.07;;;4.03;;
23668;SDS011;12011;47.422;15.018;2022-11-06T00:15:45;5.91;;;5.86;;
23668;SDS011;12011;47.422;15.018;2022-11-06T00:18:19;6.12;;;6.06;;
23668;SDS011;12011;47.422;15.018;2022-11-06T00:20:50;5.83;;;5.76;;
23668;SDS011;12011;47.422;15.018;2022-11-06T00:23:22;5.72;;;5.65;;
23668;SDS011;12011;47.422;15.018;2022-11-06T00:25:56;5.12;;;5.10;;
23668;SDS011;12011;47.422;15.018;2022-11-06T00:28:27;4.29;;;4.28;;
23668;SDS011;12011;47.422;15.018;2022-11-06T00:31:00;4.36;;;4.34;;
23668;SDS011;12011;47.422;15.018;2022-11-06T00:33:34;4.15;;;4.12;;
23668;SDS011;12011;47.422;15.018;2022-11-06T00:36:05;3.32;;;3.30;;
23668;SDS011;12011;47.422;15.018;2022-11-06T00:38:38;2.92;;;2.91;;
23668;SDS011;12011;47.422;15.018;2022-11-06T00:41:09;2.92;;;2.90;;
23668;SDS011;12011;47.422;15.018;2022-11-06T00:43:46;2.74;;;2.72;;
23668;SDS011;12011;47.422;15.018;2022-11-06T00:46:17;2.52;;;2.49;;
23668;SDS011;12011;47.422;15.018;2022-11-06T00:48:50;2.79;;;2.76;;
23668;SDS011;12011;47.422;15.018;2022-11-06T00:51:22;3.09;;;3.07;;
23668;SDS011;12011;47.422;15.018;2022-11-06T00:53:59;3.14;;;3.13;;
23668;SDS011;12011;47.422;15.018;2022-11-06T00:56:32;3.35;;;3.32;;
23668;SDS011;12011;47.422;15.018;2022-11-06T00:59:04;3.29;;;3.28;;
23668;SDS011;12011;47.422;15.018;2022-11-06T01:01:38;2.73;;;2.71;;
23668;SDS011;12011;47.422;15.018;2022-11-06T01:04:16;2.84;;;2.81;;
23668;SDS011;12011;47.422;15.018;2022-11-06T01:06:52;2.88;;;2.86;;
23668;SDS011;12011;47.422;15.018;2022-11-06T01:09:25;2.83;;;2.81;;
23668;SDS011;12011;47.422;15.018;2022-11-06T01:11:57;2.16;;;2.15;;
23668;SDS011;12011;47.422;15.018;2022-11-06T01:14:29;2.18;;;2.16;;
23668;SDS011;12011;47.422;15.018;2022-11-06T01:17:02;1.88;;;1.86;;
23668;SDS011;12011;47.422;15.018;2022-11-06T01:19:53;1.96;;;1.94;;
23668;SDS011;12011;47.422;15.018;2022-11-06T01:22:25;1.97;;;1.96;;
23668;SDS011;12011;47.422;15.018;2022-11-06T01:24:56;2.12;;;2.12;;
23668;SDS011;12011;47.422;15.018;2022-11-06T01:27:26;2.09;;;2.09;;
23668;SDS011;12011;47.422;15.018;2022-11-06T01:29:59;3.57;;;3.55;;
23668;SDS011;12011;47.422;15.018;2022-11-06T01:32:31;4.28;;;4.26;;
23668;SDS011;12011;47.422;15.018;2022-11-06T01:35:05;3.77;;;3.76;;
23668;SDS011;12011;47.422;15.018;2022-11-06T01:37:41;2.75;;;2.74;;
23668;SDS011;12011;47.422;15.018;2022-11-06T01:40:12;2.45;;;2.44;;
23668;SDS011;12011;47.422;15.018;2022-11-06T01:42:45;2.46;;;2.46;;
23668;SDS011;12011;47.422;15.018;2022-11-06T01:45:20;2.34;;;2.34;;
23668;SDS011;12011;47.422;15.018;2022-11-06T01:51:15;2.21;;;2.20;;
23668;SDS011;12011;47.422;15.018;2022-11-06T01:53:50;2.02;;;2.01;;
23668;SDS011;12011;47.422;15.018;2022-11-06T01:56:23;1.91;;;1.90;;
23668;SDS011;12011;47.422;15.018;2022-11-06T01:59:04;1.94;;;1.93;;
23668;SDS011;12011;47.422;15.018;2022-11-06T02:01:40;1.74;;;1.74;;
23668;SDS011;12011;47.422;15.018;2022-11-06T02:04:11;1.57;;;1.57;;
23668;SDS011;12011;47.422;15.018;2022-11-06T02:06:49;2.22;;;2.22;;
23668;SDS011;12011;47.422;15.018;2022-11-06T02:09:20;2.12;;;2.12;;
23668;SDS011;12011;47.422;15.018;2022-11-06T02:11:55;2.76;;;2.76;;
23668;SDS011;12011;47.422;15.018;2022-11-06T02:14:39;2.25;;;2.25;;
23668;SDS011;12011;47.422;15.018;2022-11-06T02:17:35;1.74;;;1.74;;
23668;SDS011;12011;47.422;15.018;2022-11-06T02:20:24;1.67;;;1.67;;
23668;SDS011;12011;47.422;15.018;2022-11-06T02:23:14;1.55;;;1.55;;
23668;SDS011;12011;47.422;15.018;2022-11-06T02:26:06;1.73;;;1.73;;
23668;SDS011;12011;47.422;15.018;2022-11-06T02:28:56;1.70;;;1.70;;
23668;SDS011;12011;47.422;15.018;2022-11-06T02:31:32;1.62;;;1.62;;
23668;SDS011;12011;47.422;15.018;2022-11-06T02:34:08;1.63;;;1.63;;
23668;SDS011;12011;47.422;15.018;2022-11-06T02:36:44;1.81;;;1.81;;
23668;SDS011;12011;47.422;15.018;2022-11-06T02:39:21;1.71;;;1.71;;
23668;SDS011;12011;47.422;15.018;2022-11-06T02:41:56;1.77;;;1.77;;
23668;SDS011;12011;47.422;15.018;2022-11-06T02:44:30;1.88;;;1.88;;
23668;SDS011;12011;47.422;15.018;2022-11-06T02:47:05;1.64;;;1.63;;
23668;SDS011;12011;47.422;15.018;2022-11-06T02:49:40;1.71;;;1.70;;
23668;SDS011;12011;47.422;15.018;2022-11-06T02:52:18;2.08;;;2.07;;
23668;SDS011;12011;47.422;15.018;2022-11-06T02:54:54;1.68;;;1.67;;
23668;SDS011;12011;47.422;15.018;2022-11-06T02:57:35;1.91;;;1.89;;
23668;SDS011;12011;47.422;15.018;2022-11-06T03:00:13;1.66;;;1.64;;
23668;SDS011;12011;47.422;15.018;2022-11-06T03:02:45;1.68;;;1.66;;
23668;SDS011;12011;47.422;15.018;2022-11-06T03:05:25;2.05;;;2.03;;
23668;SDS011;12011;47.422;15.018;2022-11-06T03:08:01;2.30;;;2.28;;
23668;SDS011;12011;47.422;15.018;2022-11-06T03:10:41;1.67;;;1.67;;
23668;SDS011;12011;47.422;15.018;2022-11-06T03:13:23;1.69;;;1.69;;
23668;SDS011;12011;47.422;15.018;2022-11-06T03:16:07;1.68;;;1.68;;
23668;SDS011;12011;47.422;15.018;2022-11-06T03:18:54;1.49;;;1.49;;
23668;SDS011;12011;47.422;15.018;2022-11-06T03:21:35;1.64;;;1.63;;
23668;SDS011;12011;47.422;15.018;2022-11-06T03:24:16;1.94;;;1.93;;
23668;SDS011;12011;47.422;15.018;2022-11-06T03:26:55;2.12;;;2.10;;
23668;SDS011;12011;47.422;15.018;2022-11-06T03:29:35;1.90;;;1.89;;
23668;SDS011;12011;47.422;15.018;2022-11-06T03:32:16;1.51;;;1.51;;
23668;SDS011;12011;47.422;15.018;2022-11-06T03:34:52;1.54;;;1.54;;
23668;SDS011;12011;47.422;15.018;2022-11-06T03:37:29;1.91;;;1.91;;
23668;SDS011;12011;47.422;15.018;2022-11-06T03:40:06;1.97;;;1.96;;
23668;SDS011;12011;47.422;15.018;2022-11-06T03:42:41;1.86;;;1.85;;
23668;SDS011;12011;47.422;15.018;2022-11-06T03:45:17;1.75;;;1.75;;
23668;SDS011;12011;47.422;15.018;2022-11-06T03:47:54;1.25;;;1.25;;
23668;SDS011;12011;47.422;15.018;2022-11-06T03:50:31;1.22;;;1.22;;
23668;SDS011;12011;47.422;15.018;2022-11-06T03:53:11;1.29;;;1.29;;
23668;SDS011;12011;47.422;15.018;2022-11-06T03:55:49;1.46;;;1.46;;
23668;SDS011;12011;47.422;15.018;2022-11-06T03:58:24;1.73;;;1.73;;
23668;SDS011;12011;47.422;15.018;2022-11-06T04:01:01;1.86;;;1.86;;
23668;SDS011;12011;47.422;15.018;2022-11-06T04:03:40;1.80;;;1.80;;
23668;SDS011;12011;47.422;15.018;2022-11-06T04:06:17;1.65;;;1.65;;
23668;SDS011;12011;47.422;15.018;2022-11-06T04:08:55;1.68;;;1.68;;
23668;SDS011;12011;47.422;15.018;2022-11-06T04:11:45;1.64;;;1.63;;
23668;SDS011;12011;47.422;15.018;2022-11-06T04:14:29;1.52;;;1.51;;
23668;SDS011;12011;47.422;15.018;2022-11-06T04:17:05;1.75;;;1.74;;
23668;SDS011;12011;47.422;15.018;2022-11-06T04:19:44;1.82;;;1.80;;
23668;SDS011;12011;47.422;15.018;2022-11-06T04:22:23;2.05;;;2.03;;
23668;SDS011;12011;47.422;15.018;2022-11-06T04:25:14;2.02;;;1.99;;
23668;SDS011;12011;47.422;15.018;2022-11-06T04:28:16;1.59;;;1.57;;
23668;SDS011;12011;47.422;15.018;2022-11-06T04:31:01;1.73;;;1.72;;
23668;SDS011;12011;47.422;15.018;2022-11-06T04:33:42;1.63;;;1.62;;
23668;SDS011;12011;47.422;15.018;2022-11-06T04:36:25;1.56;;;1.55;;
23668;SDS011;12011;47.422;15.018;2022-11-06T04:39:12;1.76;;;1.76;;
23668;SDS011;12011;47.422;15.018;2022-11-06T04:41:57;1.50;;;1.50;;
23668;SDS011;12011;47.422;15.018;2022-11-06T04:44:37;1.63;;;1.63;;
23668;SDS011;12011;47.422;15.018;2022-11-06T04:47:16;1.52;;;1.51;;
23668;SDS011;12011;47.422;15.018;2022-11-06T04:49:49;1.52;;;1.52;;
23668;SDS011;12011;47.422;15.018;2022-11-06T04:52:29;1.57;;;1.57;;
23668;SDS011;12011;47.422;15.018;2022-11-06T04:55:00;1.60;;;1.59;;
23668;SDS011;12011;47.422;15.018;2022-11-06T04:57:30;1.66;;;1.66;;
23668;SDS011;12011;47.422;15.018;2022-11-06T05:00:03;1.65;;;1.65;;
23668;SDS011;12011;47.422;15.018;2022-11-06T05:02:38;1.64;;;1.64;;
23668;SDS011;12011;47.422;15.018;2022-11-06T05:05:08;1.94;;;1.94;;
23668;SDS011;12011;47.422;15.018;2022-11-06T05:07:40;1.64;;;1.64;;
23668;SDS011;12011;47.422;15.018;2022-11-06T05:10:10;1.84;;;1.84;;
23668;SDS011;12011;47.422;15.018;2022-11-06T05:12:39;1.82;;;1.82;;
23668;SDS011;12011;47.422;15.018;2022-11-06T05:15:10;1.56;;;1.56;;
23668;SDS011;12011;47.422;15.018;2022-11-06T05:17:40;1.57;;;1.57;;
23668;SDS011;12011;47.422;15.018;2022-11-06T05:20:10;1.66;;;1.66;;
23668;SDS011;12011;47.422;15.018;2022-11-06T05:22:42;1.87;;;1.87;;
23668;SDS011;12011;47.422;15.018;2022-11-06T05:25:24;1.76;;;1.76;;
23668;SDS011;12011;47.422;15.018;2022-11-06T05:27:57;1.65;;;1.65;;
23668;SDS011;12011;47.422;15.018;2022-11-06T05:30:30;1.77;;;1.77;;
23668;SDS011;12011;47.422;15.018;2022-11-06T05:33:00;1.80;;;1.80;;
23668;SDS011;12011;47.422;15.018;2022-11-06T05:35:30;1.81;;;1.81;;
23668;SDS011;12011;47.422;15.018;2022-11-06T05:38:02;2.03;;;2.03;;
23668;SDS011;12011;47.422;15.018;2022-11-06T05:40:32;2.29;;;2.29;;
23668;SDS011;12011;47.422;15.018;2022-11-06T05:43:02;2.03;;;2.03;;
23668;SDS011;12011;47.422;15.018;2022-11-06T05:45:31;1.74;;;1.74;;
23668;SDS011;12011;47.422;15.018;2022-11-06T05:48:01;1.84;;;1.84;;
23668;SDS011;12011;47.422;15.018;2022-11-06T05:50:30;1.91;;;1.91;;
23668;SDS011;12011;47.422;15.018;2022-11-06T05:53:05;1.88;;;1.88;;
23668;SDS011;12011;47.422;15.018;2022-11-06T05:55:34;1.50;;;1.49;;
23668;SDS011;12011;47.422;15.018;2022-11-06T05:58:04;2.27;;;2.27;;
23668;SDS011;12011;47.422;15.018;2022-11-06T06:00:33;2.22;;;2.22;;
23668;SDS011;12011;47.422;15.018;2022-11-06T06:03:03;1.97;;;1.97;;
23668;SDS011;12011;47.422;15.018;2022-11-06T06:05:32;2.44;;;2.44;;
23668;SDS011;12011;47.422;15.018;2022-11-06T06:08:05;1.97;;;1.97;;
23668;SDS011;12011;47.422;15.018;2022-11-06T06:10:35;2.39;;;2.39;;
23668;SDS011;12011;47.422;15.018;2022-11-06T06:13:08;3.06;;;3.06;;
23668;SDS011;12011;47.422;15.018;2022-11-06T06:15:39;2.75;;;2.74;;
23668;SDS011;12011;47.422;15.018;2022-11-06T06:18:10;1.86;;;1.85;;
23668;SDS011;12011;47.422;15.018;2022-11-06T06:20:40;1.82;;;1.81;;
23668;SDS011;12011;47.422;15.018;2022-11-06T06:23:12;2.03;;;2.01;;
23668;SDS011;12011;47.422;15.018;2022-11-06T06:25:42;2.63;;;2.62;;
23668;SDS011;12011;47.422;15.018;2022-11-06T06:28:11;2.58;;;2.55;;
23668;SDS011;12011;47.422;15.018;2022-11-06T06:30:41;2.26;;;2.23;;
23668;SDS011;12011;47.422;15.018;2022-11-06T06:33:10;2.34;;;2.32;;
23668;SDS011;12011;47.422;15.018;2022-11-06T06:35:40;2.44;;;2.41;;
23668;SDS011;12011;47.422;15.018;2022-11-06T06:38:12;3.06;;;3.01;;
23668;SDS011;12011;47.422;15.018;2022-11-06T06:40:42;4.35;;;4.28;;
23668;SDS011;12011;47.422;15.018;2022-11-06T06:43:11;11.22;;;10.90;;
23668;SDS011;12011;47.422;15.018;2022-11-06T06:45:41;8.32;;;8.01;;
23668;SDS011;12011;47.422;15.018;2022-11-06T06:48:10;8.85;;;8.44;;
23668;SDS011;12011;47.422;15.018;2022-11-06T06:50:40;7.61;;;7.37;;
23668;SDS011;12011;47.422;15.018;2022-11-06T06:53:12;7.41;;;7.27;;
23668;SDS011;12011;47.422;15.018;2022-11-06T06:55:41;6.27;;;6.16;;
23668;SDS011;12011;47.422;15.018;2022-11-06T06:58:11;6.17;;;6.09;;
23668;SDS011;12011;47.422;15.018;2022-11-06T07:00:40;6.48;;;6.37;;
23668;SDS011;12011;47.422;15.018;2022-11-06T07:03:11;6.65;;;6.52;;
23668;SDS011;12011;47.422;15.018;2022-11-06T07:05:41;6.89;;;6.79;;
23668;SDS011;12011;47.422;15.018;2022-11-06T07:08:14;4.62;;;4.53;;
23668;SDS011;12011;47.422;15.018;2022-11-06T07:10:43;3.28;;;3.26;;
23668;SDS011;12011;47.422;15.018;2022-11-06T07:13:13;3.97;;;3.95;;
23668;SDS011;12011;47.422;15.018;2022-11-06T07:15:43;3.73;;;3.72;;
23668;SDS011;12011;47.422;15.018;2022-11-06T07:18:12;6.40;;;6.34;;
23668;SDS011;12011;47.422;15.018;2022-11-06T07:20:42;8.53;;;8.35;;
23668;SDS011;12011;47.422;15.018;2022-11-06T07:23:14;7.71;;;7.57;;
23668;SDS011;12011;47.422;15.018;2022-11-06T07:25:43;6.05;;;5.94;;
23668;SDS011;12011;47.422;15.018;2022-11-06T07:28:19;6.23;;;6.14;;
23668;SDS011;12011;47.422;15.018;2022-11-06T07:30:49;5.97;;;5.86;;
23668;SDS011;12011;47.422;15.018;2022-11-06T07:33:18;6.80;;;6.71;;
23668;SDS011;12011;47.422;15.018;2022-11-06T07:35:48;6.56;;;6.48;;
23668;SDS011;12011;47.422;15.018;2022-11-06T07:38:21;6.23;;;6.19;;
23668;SDS011;12011;47.422;15.018;2022-11-06T07:40:50;6.43;;;6.39;;
23668;SDS011;12011;47.422;15.018;2022-11-06T07:43:20;6.47;;;6.41;;
23668;SDS011;12011;47.422;15.018;2022-11-06T07:45:51;6.66;;;6.60;;
23668;SDS011;12011;47.422;15.018;2022-11-06T07:48:20;6.07;;;6.04;;
23668;SDS011;12011;47.422;15.018;2022-11-06T07:50:50;5.34;;;5.30;;
23668;SDS011;12011;47.422;15.018;2022-11-06T07:53:22;6.57;;;6.55;;
23668;SDS011;12011;47.422;15.018;2022-11-06T07:55:53;6.63;;;6.60;;
23668;SDS011;12011;47.422;15.018;2022-11-06T07:58:23;6.66;;;6.62;;
23668;SDS011;12011;47.422;15.018;2022-11-06T08:00:54;4.55;;;4.53;;
23668;SDS011;12011;47.422;15.018;2022-11-06T08:03:26;3.66;;;3.64;;
23668;SDS011;12011;47.422;15.018;2022-11-06T08:05:56;3.80;;;3.76;;
23668;SDS011;12011;47.422;15.018;2022-11-06T08:08:29;5.92;;;5.85;;
23668;SDS011;12011;47.422;15.018;2022-11-06T08:11:00;5.44;;;5.37;;
23668;SDS011;12011;47.422;15.018;2022-11-06T08:13:30;6.00;;;5.95;;
23668;SDS011;12011;47.422;15.018;2022-11-06T08:16:04;4.82;;;4.80;;
23668;SDS011;12011;47.422;15.018;2022-11-06T08:18:36;4.50;;;4.49;;
23668;SDS011;12011;47.422;15.018;2022-11-06T08:21:06;3.18;;;3.16;;
23668;SDS011;12011;47.422;15.018;2022-11-06T08:23:39;3.75;;;3.74;;
23668;SDS011;12011;47.422;15.018;2022-11-06T08:26:09;2.18;;;2.17;;
23668;SDS011;12011;47.422;15.018;2022-11-06T08:28:39;3.00;;;2.99;;
23668;SDS011;12011;47.422;15.018;2022-11-06T08:31:09;2.59;;;2.59;;
23668;SDS011;12011;47.422;15.018;2022-11-06T08:33:39;2.12;;;2.12;;
23668;SDS011;12011;47.422;15.018;2022-11-06T08:36:09;2.41;;;2.40;;
23668;SDS011;12011;47.422;15.018;2022-11-06T08:38:41;2.72;;;2.72;;
23668;SDS011;12011;47.422;15.018;2022-11-06T08:41:11;3.03;;;3.03;;
23668;SDS011;12011;47.422;15.018;2022-11-06T08:43:41;2.63;;;2.63;;
23668;SDS011;12011;47.422;15.018;2022-11-06T08:46:10;2.51;;;2.51;;
23668;SDS011;12011;47.422;15.018;2022-11-06T08:48:40;2.15;;;2.15;;
23668;SDS011;12011;47.422;15.018;2022-11-06T08:51:09;2.28;;;2.28;;
23668;SDS011;12011;47.422;15.018;2022-11-06T08:53:42;2.38;;;2.38;;
23668;SDS011;12011;47.422;15.018;2022-11-06T08:56:11;2.23;;;2.23;;
23668;SDS011;12011;47.422;15.018;2022-11-06T08:58:41;2.29;;;2.29;;
23668;SDS011;12011;47.422;15.018;2022-11-06T09:01:11;2.39;;;2.39;;
23668;SDS011;12011;47.422;15.018;2022-11-06T09:03:40;2.27;;;2.27;;
23668;SDS011;12011;47.422;15.018;2022-11-06T09:06:10;2.43;;;2.43;;
23668;SDS011;12011;47.422;15.018;2022-11-06T09:08:42;2.37;;;2.37;;
23668;SDS011;12011;47.422;15.018;2022-11-06T09:11:11;1.98;;;1.98;;
23668;SDS011;12011;47.422;15.018;2022-11-06T09:13:41;2.06;;;2.06;;
23668;SDS011;12011;47.422;15.018;2022-11-06T09:16:10;2.24;;;2.24;;
23668;SDS011;12011;47.422;15.018;2022-11-06T09:18:40;2.35;;;2.35;;
23668;SDS011;12011;47.422;15.018;2022-11-06T09:21:09;1.96;;;1.96;;
23668;SDS011;12011;47.422;15.018;2022-11-06T09:23:42;1.93;;;1.93;;
23668;SDS011;12011;47.422;15.018;2022-11-06T09:26:13;2.10;;;2.10;;
23668;SDS011;12011;47.422;15.018;2022-11-06T09:28:42;2.19;;;2.19;;
23668;SDS011;12011;47.422;15.018;2022-11-06T09:31:13;2.14;;;2.14;;
23668;SDS011;12011;47.422;15.018;2022-11-06T09:33:42;2.36;;;2.36;;
23668;SDS011;12011;47.422;15.018;2022-11-06T09:36:12;2.13;;;2.13;;
23668;SDS011;12011;47.422;15.018;2022-11-06T09:38:44;2.27;;;2.27;;
23668;SDS011;12011;47.422;15.018;2022-11-06T09:41:16;2.17;;;2.17;;
23668;SDS011;12011;47.422;15.018;2022-11-06T09:43:57;2.02;;;2.02;;
23668;SDS011;12011;47.422;15.018;2022-11-06T09:46:46;2.15;;;2.15;;
23668;SDS011;12011;47.422;15.018;2022-11-06T09:49:19;2.01;;;2.00;;
23668;SDS011;12011;47.422;15.018;2022-11-06T09:51:56;2.10;;;2.10;;
23668;SDS011;12011;47.422;15.018;2022-11-06T09:54:37;2.69;;;2.69;;
23668;SDS011;12011;47.422;15.018;2022-11-06T09:57:15;1.99;;;1.99;;
23668;SDS011;12011;47.422;15.018;2022-11-06T09:59:50;2.07;;;2.07;;
23668;SDS011;12011;47.422;15.018;2022-11-06T10:02:22;1.73;;;1.73;;
23668;SDS011;12011;47.422;15.018;2022-11-06T10:05:01;1.81;;;1.81;;
23668;SDS011;12011;47.422;15.018;2022-11-06T10:07:41;1.54;;;1.54;;
23668;SDS011;12011;47.422;15.018;2022-11-06T10:10:17;1.38;;;1.38;;
23668;SDS011;12011;47.422;15.018;2022-11-06T10:12:59;1.20;;;1.20;;
23668;SDS011;12011;47.422;15.018;2022-11-06T10:15:48;1.46;;;1.46;;
23668;SDS011;12011;47.422;15.018;2022-11-06T10:18:29;1.36;;;1.36;;
23668;SDS011;12011;47.422;15.018;2022-11-06T10:21:18;1.58;;;1.58;;
23668;SDS011;12011;47.422;15.018;2022-11-06T10:23:53;1.22;;;1.22;;
23668;SDS011;12011;47.422;15.018;2022-11-06T10:26:30;1.06;;;1.06;;
23668;SDS011;12011;47.422;15.018;2022-11-06T10:29:10;1.21;;;1.21;;
23668;SDS011;12011;47.422;15.018;2022-11-06T10:32:02;1.47;;;1.47;;
23668;SDS011;12011;47.422;15.018;2022-11-06T10:35:05;1.42;;;1.42;;
23668;SDS011;12011;47.422;15.018;2022-11-06T10:37:46;1.20;;;1.20;;
23668;SDS011;12011;47.422;15.018;2022-11-06T10:40:23;1.07;;;1.07;;
23668;SDS011;12011;47.422;15.018;2022-11-06T10:43:02;0.97;;;0.97;;
23668;SDS011;12011;47.422;15.018;2022-11-06T10:45:52;1.09;;;1.09;;
23668;SDS011;12011;47.422;15.018;2022-11-06T10:48:31;0.70;;;0.70;;
23668;SDS011;12011;47.422;15.018;2022-11-06T10:51:13;0.58;;;0.58;;
23668;SDS011;12011;47.422;15.018;2022-11-06T10:54:06;0.66;;;0.66;;
23668;SDS011;12011;47.422;15.018;2022-11-06T10:57:00;0.56;;;0.56;;
23668;SDS011;12011;47.422;15.018;2022-11-06T10:59:50;0.66;;;0.66;;
23668;SDS011;12011;47.422;15.018;2022-11-06T11:02:22;0.53;;;0.53;;
23668;SDS011;12011;47.422;15.018;2022-11-06T11:04:57;0.54;;;0.54;;
23668;SDS011;12011;47.422;15.018;2022-11-06T11:07:28;0.43;;;0.43;;
23668;SDS011;12011;47.422;15.018;2022-11-06T11:10:12;0.31;;;0.31;;
23668;SDS011;12011;47.422;15.018;2022-11-06T11:12:56;0.49;;;0.49;;
23668;SDS011;12011;47.422;15.018;2022-11-06T11:15:32;0.59;;;0.59;;
23668;SDS011;12011;47.422;15.018;2022-11-06T11:18:16;0.49;;;0.49;;
23668;SDS011;12011;47.422;15.018;2022-11-06T11:21:06;0.46;;;0.46;;
23668;SDS011;12011;47.422;15.018;2022-11-06T11:24:05;0.58;;;0.58;;
23668;SDS011;12011;47.422;15.018;2022-11-06T11:26:38;0.45;;;0.45;;
23668;SDS011;12011;47.422;15.018;2022-11-06T11:29:15;0.48;;;0.48;;
23668;SDS011;12011;47.422;15.018;2022-11-06T11:31:54;0.50;;;0.50;;
23668;SDS011;12011;47.422;15.018;2022-11-06T11:34:29;0.56;;;0.56;;
23668;SDS011;12011;47.422;15.018;2022-11-06T11:37:02;0.46;;;0.46;;
23668;SDS011;12011;47.422;15.018;2022-11-06T11:39:34;0.48;;;0.48;;
23668;SDS011;12011;47.422;15.018;2022-11-06T11:47:52;0.52;;;0.52;;
23668;SDS011;12011;47.422;15.018;2022-11-06T11:50:41;0.52;;;0.52;;
23668;SDS011;12011;47.422;15.018;2022-11-06T11:53:12;0.63;;;0.63;;
23668;SDS011;12011;47.422;15.018;2022-11-06T11:55:48;0.50;;;0.50;;
23668;SDS011;12011;47.422;15.018;2022-11-06T11:58:22;0.58;;;0.58;;
23668;SDS011;12011;47.422;15.018;2022-11-06T12:00:57;0.67;;;0.67;;
23668;SDS011;12011;47.422;15.018;2022-11-06T12:03:37;0.46;;;0.46;;
23668;SDS011;12011;47.422;15.018;2022-11-06T12:06:13;0.54;;;0.54;;
23668;SDS011;12011;47.422;15.018;2022-11-06T12:08:46;0.47;;;0.47;;
23668;SDS011;12011;47.422;15.018;2022-11-06T12:11:19;0.51;;;0.51;;
23668;SDS011;12011;47.422;15.018;2022-11-06T12:17:08;0.66;;;0.66;;
23668;SDS011;12011;47.422;15.018;2022-11-06T12:19:50;0.55;;;0.55;;
23668;SDS011;12011;47.422;15.018;2022-11-06T12:22:24;0.83;;;0.83;;
23668;SDS011;12011;47.422;15.018;2022-11-06T12:25:02;1.36;;;1.36;;
23668;SDS011;12011;47.422;15.018;2022-11-06T12:27:39;0.55;;;0.55;;
23668;SDS011;12011;47.422;15.018;2022-11-06T12:30:14;0.59;;;0.59;;
23668;SDS011;12011;47.422;15.018;2022-11-06T12:32:50;0.52;;;0.52;;
23668;SDS011;12011;47.422;15.018;2022-11-06T12:35:35;0.69;;;0.69;;
23668;SDS011;12011;47.422;15.018;2022-11-06T12:38:10;1.52;;;1.52;;
23668;SDS011;12011;47.422;15.018;2022-11-06T12:40:54;0.67;;;0.67;;
23668;SDS011;12011;47.422;15.018;2022-11-06T12:43:32;0.65;;;0.65;;
23668;SDS011;12011;47.422;15.018;2022-11-06T12:49:15;0.65;;;0.65;;
23668;SDS011;12011;47.422;15.018;2022-11-06T12:52:31;0.73;;;0.73;;
23668;SDS011;12011;47.422;15.018;2022-11-06T12:55:34;7.70;;;7.61;;
23668;SDS011;12011;47.422;15.018;2022-11-06T12:58:29;7.15;;;7.02;;
23668;SDS011;12011;47.422;15.018;2022-11-06T13:01:19;5.99;;;5.97;;
23668;SDS011;12011;47.422;15.018;2022-11-06T13:04:16;10.01;;;9.90;;
23668;SDS011;12011;47.422;15.018;2022-11-06T13:07:05;3.10;;;3.06;;
23668;SDS011;12011;47.422;15.018;2022-11-06T13:10:06;0.84;;;0.84;;
23668;SDS011;12011;47.422;15.018;2022-11-06T13:12:59;1.26;;;1.26;;
23668;SDS011;12011;47.422;15.018;2022-11-06T13:15:55;2.32;;;2.32;;
23668;SDS011;12011;47.422;15.018;2022-11-06T13:18:36;3.94;;;3.94;;
23668;SDS011;12011;47.422;15.018;2022-11-06T13:21:13;0.89;;;0.89;;
23668;SDS011;12011;47.422;15.018;2022-11-06T13:23:53;0.68;;;0.68;;
23668;SDS011;12011;47.422;15.018;2022-11-06T13:26:32;1.84;;;1.83;;
23668;SDS011;12011;47.422;15.018;2022-11-06T13:29:10;0.79;;;0.79;;
23668;SDS011;12011;47.422;15.018;2022-11-06T13:31:46;0.59;;;0.59;;
23668;SDS011;12011;47.422;15.018;2022-11-06T13:34:23;0.78;;;0.78;;
23668;SDS011;12011;47.422;15.018;2022-11-06T13:36:58;0.75;;;0.75;;
23668;SDS011;12011;47.422;15.018;2022-11-06T13:39:33;0.65;;;0.65;;
23668;SDS011;12011;47.422;15.018;2022-11-06T13:42:18;6.90;;;6.88;;
23668;SDS011;12011;47.422;15.018;2022-11-06T13:44:53;3.72;;;3.68;;
23668;SDS011;12011;47.422;15.018;2022-11-06T13:47:26;7.11;;;7.00;;
23668;SDS011;12011;47.422;15.018;2022-11-06T13:50:05;0.74;;;0.73;;
23668;SDS011;12011;47.422;15.018;2022-11-06T13:52:45;0.56;;;0.55;;
23668;SDS011;12011;47.422;15.018;2022-11-06T13:55:27;0.61;;;0.60;;
23668;SDS011;12011;47.422;15.018;2022-11-06T13:58:26;0.58;;;0.58;;
23668;SDS011;12011;47.422;15.018;2022-11-06T14:01:25;0.53;;;0.53;;
23668;SDS011;12011;47.422;15.018;2022-11-06T14:04:17;0.56;;;0.56;;
23668;SDS011;12011;47.422;15.018;2022-11-06T14:07:22;1.35;;;1.34;;
23668;SDS011;12011;47.422;15.018;2022-11-06T14:09:58;1.22;;;1.21;;
23668;SDS011;12011;47.422;15.018;2022-11-06T14:12:31;0.77;;;0.77;;
23668;SDS011;12011;47.422;15.018;2022-11-06T14:15:12;1.06;;;1.05;;
23668;SDS011;12011;47.422;15.018;2022-11-06T14:17:55;1.24;;;1.22;;
23668;SDS011;12011;47.422;15.018;2022-11-06T14:20:28;0.78;;;0.77;;
23668;SDS011;12011;47.422;15.018;2022-11-06T14:26:13;0.75;;;0.74;;
23668;SDS011;12011;47.422;15.018;2022-11-06T14:32:36;0.67;;;0.67;;
23668;SDS011;12011;47.422;15.018;2022-11-06T14:38:18;0.54;;;0.54;;
23668;SDS011;12011;47.422;15.018;2022-11-06T14:44:45;1.61;;;1.61;;
23668;SDS011;12011;47.422;15.018;2022-11-06T14:47:20;1.21;;;1.20;;
23668;SDS011;12011;47.422;15.018;2022-11-06T14:49:57;1.24;;;1.24;;
23668;SDS011;12011;47.422;15.018;2022-11-06T14:52:41;1.47;;;1.47;;
23668;SDS011;12011;47.422;15.018;2022-11-06T14:55:22;1.37;;;1.37;;
23668;SDS011;12011;47.422;15.018;2022-11-06T14:57:59;1.31;;;1.30;;
23668;SDS011;12011;47.422;15.018;2022-11-06T15:00:46;1.66;;;1.65;;
23668;SDS011;12011;47.422;15.018;2022-11-06T15:03:21;1.83;;;1.83;;
23668;SDS011;12011;47.422;15.018;2022-11-06T15:05:59;1.68;;;1.68;;
23668;SDS011;12011;47.422;15.018;2022-11-06T15:17:27;1.85;;;1.83;;
23668;SDS011;12011;47.422;15.018;2022-11-06T15:23:09;1.57;;;1.57;;
23668;SDS011;12011;47.422;15.018;2022-11-06T15:25:46;1.53;;;1.52;;
23668;SDS011;12011;47.422;15.018;2022-11-06T15:28:25;1.39;;;1.38;;
23668;SDS011;12011;47.422;15.018;2022-11-06T15:31:03;1.60;;;1.59;;
23668;SDS011;12011;47.422;15.018;2022-11-06T15:33:43;1.70;;;1.69;;
23668;SDS011;12011;47.422;15.018;2022-11-06T15:36:21;1.81;;;1.80;;
23668;SDS011;12011;47.422;15.018;2022-11-06T15:38:53;1.92;;;1.91;;
23668;SDS011;12011;47.422;15.018;2022-11-06T15:41:23;1.79;;;1.78;;
23668;SDS011;12011;47.422;15.018;2022-11-06T15:43:55;1.82;;;1.82;;
23668;SDS011;12011;47.422;15.018;2022-11-06T15:46:25;1.97;;;1.96;;
23668;SDS011;12011;47.422;15.018;2022-11-06T15:49:14;2.52;;;2.51;;
23668;SDS011;12011;47.422;15.018;2022-11-06T15:51:49;2.22;;;2.20;;
23668;SDS011;12011;47.422;15.018;2022-11-06T15:54:31;2.46;;;2.43;;
23668;SDS011;12011;47.422;15.018;2022-11-06T15:57:04;2.29;;;2.27;;
23668;SDS011;12011;47.422;15.018;2022-11-06T15:59:44;2.49;;;2.47;;
23668;SDS011;12011;47.422;15.018;2022-11-06T16:02:15;2.85;;;2.82;;
23668;SDS011;12011;47.422;15.018;2022-11-06T16:04:50;3.26;;;3.24;;
23668;SDS011;12011;47.422;15.018;2022-11-06T16:07:20;3.82;;;3.79;;